Time;durP1;ratioP1;P1;durP2;ratioP2;P2;SDS_P1;SDS_P2;PMS_P1;PMS_P2;Temp;Humidity;BMP_temperature;BMP_pressure;BME280_temperature;BME280_humidity;BME280_pressure;Samples;Min_cycle;Max_cycle;Signal;HPM_P1;HPM_P2
2023/07/27 00:01:18;;;;;;;1.23;1.20;;;;;;;24.52;82.16;98359.34;5113265;28;20293;-67
2023/07/27 00:03:45;;;;;;;0.50;0.50;;;;;;;24.54;81.87;98352.13;5113102;28;20190;-67
2023/07/27 00:06:13;;;;;;;0.73;0.70;;;;;;;24.49;82.10;98357.06;5112875;28;20199;-67
2023/07/27 00:08:39;;;;;;;1.10;1.10;;;;;;;24.50;82.02;98353.44;5113080;28;20248;-67
2023/07/27 00:11:06;;;;;;;0.50;0.50;;;;;;;24.50;82.00;98356.03;5112549;28;20198;-67
2023/07/27 00:13:34;;;;;;;0.63;0.63;;;;;;;24.35;82.33;98349.78;5112776;28;20198;-67
2023/07/27 00:16:00;;;;;;;0.50;0.50;;;;;;;24.37;82.57;98363.53;5113123;28;20654;-66
2023/07/27 00:18:27;;;;;;;1.03;0.87;;;;;;;24.34;82.59;98359.44;5113036;28;20217;-66
2023/07/27 00:20:54;;;;;;;1.10;1.10;;;;;;;24.33;82.22;98357.78;5112828;28;20229;-66
2023/07/27 00:23:22;;;;;;;1.27;1.10;;;;;;;24.32;82.47;98371.06;5112875;28;20202;-67
2023/07/27 00:25:49;;;;;;;0.87;0.70;;;;;;;24.36;81.80;98367.94;5112342;28;20199;-67
2023/07/27 00:28:16;;;;;;;0.87;0.70;;;;;;;24.37;81.60;98371.38;5109801;28;20226;-67
2023/07/27 00:30:42;;;;;;;0.67;0.67;;;;;;;24.38;81.45;98367.81;5112352;28;20195;-67
2023/07/27 00:33:10;;;;;;;0.80;0.80;;;;;;;24.29;81.02;98366.13;5112894;28;20199;-67
2023/07/27 00:35:37;;;;;;;0.60;0.60;;;;;;;24.36;80.75;98380.25;5112547;28;20190;-67
2023/07/27 00:38:04;;;;;;;0.50;0.50;;;;;;;24.29;81.26;98385.28;5112245;28;20198;-67
2023/07/27 00:40:32;;;;;;;0.53;0.53;;;;;;;24.23;82.46;98382.47;5112374;28;20214;-66
2023/07/27 00:42:59;;;;;;;1.07;0.97;;;;;;;24.17;82.77;98388.34;5112292;28;20198;-67
2023/07/27 00:45:27;;;;;;;0.70;0.70;;;;;;;24.12;83.25;98387.97;5112429;28;20203;-66
2023/07/27 00:47:53;;;;;;;1.23;0.90;;;;;;;24.12;83.01;98393.22;5112134;28;20289;-67
2023/07/27 00:50:20;;;;;;;1.00;0.87;;;;;;;24.15;82.58;98385.03;5112394;28;20206;-67
2023/07/27 00:52:47;;;;;;;1.40;0.90;;;;;;;24.09;82.38;98385.66;5109595;28;20198;-67
2023/07/27 00:55:14;;;;;;;0.70;0.70;;;;;;;24.01;82.78;98389.84;5112086;28;20211;-66
2023/07/27 00:57:42;;;;;;;0.77;0.77;;;;;;;23.96;82.69;98386.91;5112519;28;20198;-66
2023/07/27 01:00:09;;;;;;;0.73;0.73;;;;;;;23.94;83.17;98388.81;5111692;28;20682;-66
2023/07/27 01:02:37;;;;;;;0.57;0.57;;;;;;;23.94;82.55;98399.28;5111994;28;20203;-66
2023/07/27 01:05:04;;;;;;;0.57;0.57;;;;;;;23.96;82.70;98396.53;5111992;28;20245;-67
2023/07/27 01:07:31;;;;;;;0.80;0.80;;;;;;;23.98;81.84;98390.16;5111974;28;20217;-67
2023/07/27 01:09:58;;;;;;;0.63;0.60;;;;;;;23.87;81.90;98381.75;5112291;28;20221;-66
2023/07/27 01:12:29;;;;;;;0.83;0.83;;;;;;;23.96;81.46;98384.28;5111777;28;20206;-67
2023/07/27 01:15:07;;;;;;;0.93;0.93;;;;;;;24.02;81.68;98385.44;5111677;28;20199;-67
2023/07/27 01:17:40;;;;;;;1.63;0.50;;;;;;;24.05;81.63;98387.75;5111372;28;20198;-67
2023/07/27 01:20:16;;;;;;;0.57;0.57;;;;;;;24.07;81.87;98387.59;5111568;28;20197;-66
2023/07/27 01:23:25;;;;;;;1.00;0.90;;;;;;;24.02;81.81;98385.44;5111658;28;20227;-66
2023/07/27 01:26:06;;;;;;;0.43;0.43;;;;;;;23.99;81.66;98391.81;5111595;28;20204;-67
2023/07/27 01:29:04;;;;;;;0.80;0.70;;;;;;;23.83;81.99;98357.69;5111604;28;20221;-67
2023/07/27 01:31:41;;;;;;;6.87;0.80;;;;;;;23.96;83.43;98391.31;5111653;28;20567;-66
2023/07/27 01:34:13;;;;;;;2.00;0.83;;;;;;;23.86;83.59;98380.94;5111579;28;20626;-66
2023/07/27 01:36:42;;;;;;;0.83;0.83;;;;;;;23.92;84.04;98400.44;5110576;28;20194;-66
2023/07/27 01:39:12;;;;;;;0.70;0.70;;;;;;;23.91;83.94;98389.13;5111662;28;20515;-67
2023/07/27 01:41:41;;;;;;;1.00;1.00;;;;;;;23.86;84.06;98395.81;5111102;28;20223;-66
2023/07/27 01:44:09;;;;;;;0.60;0.60;;;;;;;23.78;84.55;98404.44;5111156;28;20232;-67
2023/07/27 01:46:40;;;;;;;1.33;1.23;;;;;;;23.78;84.56;98398.41;5111088;28;20194;-67
2023/07/27 01:49:09;;;;;;;1.47;0.87;;;;;;;23.72;84.76;98410.28;5111109;28;20213;-67
2023/07/27 01:51:39;;;;;;;1.00;1.00;;;;;;;23.72;84.92;98409.44;5111500;28;20286;-67
2023/07/27 01:54:07;;;;;;;0.53;0.53;;;;;;;23.71;85.11;98411.28;5111660;28;20275;-67
2023/07/27 01:56:34;;;;;;;1.07;1.07;;;;;;;23.71;85.57;98419.13;5110967;28;20194;-66
2023/07/27 01:59:02;;;;;;;0.80;0.80;;;;;;;23.70;84.91;98412.25;5111230;28;20198;-66
2023/07/27 02:01:30;;;;;;;1.03;1.03;;;;;;;23.67;84.54;98417.78;5109509;28;20639;-66
2023/07/27 02:03:59;;;;;;;0.80;0.80;;;;;;;23.64;85.04;98423.31;5110369;28;20631;-67
2023/07/27 02:06:26;;;;;;;0.90;0.90;;;;;;;23.63;84.56;98426.91;5111353;28;20682;-66
2023/07/27 02:08:53;;;;;;;5.60;0.93;;;;;;;23.58;84.40;98418.69;5111277;28;20202;-66
2023/07/27 02:11:21;;;;;;;0.60;0.60;;;;;;;23.59;84.80;98427.38;5110822;28;20195;-66
2023/07/27 02:13:55;;;;;;;1.50;1.40;;;;;;;23.58;84.90;98434.41;5110394;28;20198;-66
2023/07/27 02:16:28;;;;;;;0.63;0.63;;;;;;;23.54;84.61;98433.03;5110883;28;20213;-66
2023/07/27 02:18:59;;;;;;;0.93;0.93;;;;;;;23.59;84.89;98424.75;5110866;28;20217;-66
2023/07/27 02:21:28;;;;;;;2.20;1.30;;;;;;;23.57;84.06;98434.53;5111139;28;20206;-66
2023/07/27 02:23:56;;;;;;;0.70;0.70;;;;;;;23.57;83.97;98431.91;5110701;28;20662;-66
2023/07/27 02:26:23;;;;;;;0.63;0.63;;;;;;;23.56;84.27;98430.25;5110973;28;20202;-66
2023/07/27 02:28:50;;;;;;;0.50;0.50;;;;;;;23.51;84.25;98438.59;5110636;28;20226;-66
2023/07/27 02:31:16;;;;;;;0.83;0.83;;;;;;;23.49;84.11;98437.88;5114418;28;20207;-66
2023/07/27 02:33:43;;;;;;;0.50;0.50;;;;;;;23.48;84.09;98438.88;5114993;28;20194;-66
2023/07/27 02:36:11;;;;;;;0.77;0.77;;;;;;;23.46;84.29;98451.28;5115052;28;20198;-67
2023/07/27 02:38:38;;;;;;;0.60;0.60;;;;;;;23.45;84.74;98455.72;5114886;28;20195;-66
2023/07/27 02:41:05;;;;;;;0.93;0.93;;;;;;;23.33;84.27;98441.16;5114562;28;20221;-67
2023/07/27 02:43:32;;;;;;;0.83;0.70;;;;;;;23.44;84.68;98474.16;5114511;28;20202;-67
2023/07/27 02:45:59;;;;;;;0.60;0.60;;;;;;;23.43;83.98;98472.50;5114580;28;20251;-67
2023/07/27 02:48:27;;;;;;;0.80;0.80;;;;;;;23.34;85.23;98462.91;5114875;28;20229;-67
2023/07/27 02:50:54;;;;;;;0.93;0.93;;;;;;;23.35;85.50;98482.88;5114144;28;20210;-66
2023/07/27 02:53:22;;;;;;;1.00;0.97;;;;;;;23.33;85.65;98483.00;5114747;28;20194;-67
2023/07/27 02:55:59;;;;;;;0.90;0.90;;;;;;;23.31;85.60;98482.34;5114460;28;20191;-67
2023/07/27 02:58:26;;;;;;;0.63;0.63;;;;;;;23.24;85.99;98485.69;5114914;28;20194;-66
2023/07/27 03:00:54;;;;;;;0.80;0.80;;;;;;;23.17;86.45;98487.25;5114230;28;20214;-67
2023/07/27 03:03:21;;;;;;;0.97;0.97;;;;;;;23.13;87.06;98491.97;5114171;28;20206;-66
2023/07/27 03:05:48;;;;;;;0.83;0.83;;;;;;;23.12;86.90;98505.19;5114657;28;20270;-66
2023/07/27 03:08:15;;;;;;;1.00;1.00;;;;;;;23.10;87.45;98507.94;5114270;28;20199;-66
2023/07/27 03:10:43;;;;;;;0.60;0.60;;;;;;;23.12;88.32;98505.19;5114308;28;20585;-66
2023/07/27 03:13:09;;;;;;;0.60;0.60;;;;;;;23.16;88.57;98511.75;5113868;28;20582;-66
2023/07/27 03:15:40;;;;;;;0.90;0.90;;;;;;;23.16;88.16;98514.38;5114451;28;20202;-66
2023/07/27 03:18:07;;;;;;;0.70;0.70;;;;;;;23.10;88.31;98530.66;5113029;28;20648;-66
2023/07/27 03:20:38;;;;;;;1.20;1.20;;;;;;;23.08;88.88;98522.13;5111604;28;20194;-66
2023/07/27 03:23:05;;;;;;;0.70;0.70;;;;;;;23.03;88.88;98512.13;5112600;28;20203;-66
2023/07/27 03:25:32;;;;;;;0.90;0.90;;;;;;;22.99;88.50;98516.81;5113900;28;20202;-66
2023/07/27 03:28:01;;;;;;;1.23;1.23;;;;;;;23.01;88.42;98514.84;5113750;28;20226;-67
2023/07/27 03:30:27;;;;;;;0.47;0.47;;;;;;;23.01;87.73;98512.25;5113817;28;20662;-67
2023/07/27 03:32:54;;;;;;;0.97;0.97;;;;;;;22.99;86.98;98511.59;5114291;28;20195;-67
2023/07/27 03:35:21;;;;;;;0.60;0.60;;;;;;;23.01;86.64;98509.63;5113611;28;20198;-66
2023/07/27 03:37:48;;;;;;;1.00;0.57;;;;;;;23.05;85.87;98517.19;5113937;28;20286;-66
2023/07/27 03:40:15;;;;;;;0.87;0.87;;;;;;;22.98;85.58;98524.78;5113080;28;20198;-66
2023/07/27 03:42:41;;;;;;;0.60;0.60;;;;;;;22.97;85.22;98526.56;5112853;27;20276;-67
2023/07/27 03:45:10;;;;;;;0.53;0.53;;;;;;;23.01;84.64;98532.34;5119265;27;20202;-67
2023/07/27 03:47:37;;;;;;;0.70;0.70;;;;;;;23.07;83.54;98533.56;5108860;27;20206;-66
2023/07/27 03:50:05;;;;;;;5.63;0.77;;;;;;;23.04;82.00;98546.94;5112940;27;20194;-66
2023/07/27 03:52:31;;;;;;;0.80;0.80;;;;;;;23.05;82.59;98551.16;5111040;28;20206;-66
2023/07/27 03:54:58;;;;;;;2.07;1.30;;;;;;;23.03;81.66;98561.78;5112962;28;20264;-68
2023/07/27 03:57:25;;;;;;;0.30;0.30;;;;;;;22.99;81.46;98558.63;5113456;28;20628;-66
2023/07/27 03:59:55;;;;;;;0.37;0.37;;;;;;;22.96;81.08;98560.72;5113531;28;20190;-67
2023/07/27 04:02:23;;;;;;;0.53;0.53;;;;;;;23.08;80.80;98556.09;5113134;28;20242;-66
2023/07/27 04:04:51;;;;;;;0.47;0.47;;;;;;;23.06;78.85;98569.34;5112950;28;20282;-67
2023/07/27 04:07:18;;;;;;;0.70;0.70;;;;;;;22.99;78.25;98573.50;5113627;28;20563;-66
2023/07/27 04:09:45;;;;;;;0.47;0.47;;;;;;;22.92;79.06;98577.66;5112695;28;20195;-67
2023/07/27 04:12:12;;;;;;;2.27;0.47;;;;;;;22.87;78.92;98575.47;5113168;28;20551;-66
2023/07/27 04:14:39;;;;;;;0.40;0.40;;;;;;;22.80;79.19;98573.56;5112321;28;20202;-66
2023/07/27 04:17:06;;;;;;;0.50;0.50;;;;;;;22.75;78.40;98575.78;5113184;28;20686;-66
2023/07/27 04:19:35;;;;;;;0.53;0.53;;;;;;;22.76;79.36;98590.50;5112642;28;20195;-65
2023/07/27 04:22:02;;;;;;;0.40;0.40;;;;;;;22.69;78.42;98592.84;5112607;28;20218;-66
2023/07/27 04:24:29;;;;;;;0.53;0.40;;;;;;;22.71;78.23;98590.09;5112913;28;20198;-66
2023/07/27 04:26:56;;;;;;;0.40;0.40;;;;;;;22.70;78.06;98598.91;5112900;28;20667;-66
2023/07/27 04:29:23;;;;;;;0.50;0.50;;;;;;;22.73;77.68;98599.44;5112521;28;20701;-67
2023/07/27 04:31:50;;;;;;;0.70;0.70;;;;;;;22.75;76.67;98607.13;5111920;28;20609;-66
2023/07/27 04:34:16;;;;;;;0.50;0.50;;;;;;;22.75;76.34;98610.56;5109784;28;20576;-66
2023/07/27 04:36:47;;;;;;;0.43;0.43;;;;;;;22.76;76.19;98617.44;5110570;28;20202;-66
2023/07/27 04:39:14;;;;;;;0.57;0.57;;;;;;;22.67;77.35;98610.47;5110582;28;20666;-66
2023/07/27 04:41:41;;;;;;;0.40;0.40;;;;;;;22.73;77.02;98622.97;5110624;28;20227;-66
2023/07/27 04:44:08;;;;;;;0.73;0.40;;;;;;;22.70;76.55;98628.47;5113006;27;20331;-65
2023/07/27 04:46:34;;;;;;;0.90;0.60;;;;;;;22.75;76.14;98634.09;5112117;28;20574;-65
2023/07/27 04:49:02;;;;;;;0.60;0.60;;;;;;;22.78;75.27;98628.56;5111950;28;20221;-65
2023/07/27 04:51:28;;;;;;;0.60;0.60;;;;;;;22.79;75.00;98622.41;5110808;28;20630;-65
2023/07/27 04:53:56;;;;;;;0.70;0.70;;;;;;;22.79;76.01;98630.22;5110516;28;20198;-65
2023/07/27 04:56:23;;;;;;;0.30;0.30;;;;;;;22.74;75.44;98634.25;5111798;28;20202;-66
2023/07/27 04:58:50;;;;;;;3.50;0.93;;;;;;;22.70;75.34;98636.31;5110595;28;20210;-65
2023/07/27 05:01:17;;;;;;;0.40;0.40;;;;;;;22.79;76.65;98638.06;5110634;28;20206;-66
2023/07/27 05:03:44;;;;;;;0.77;0.77;;;;;;;22.78;76.08;98627.78;5110793;28;20206;-66
2023/07/27 05:06:11;;;;;;;0.43;0.43;;;;;;;22.79;75.73;98630.22;5111092;28;20211;-66
2023/07/27 05:08:38;;;;;;;0.53;0.40;;;;;;;22.86;75.56;98635.72;5111482;28;20756;-66
2023/07/27 05:11:07;;;;;;;0.40;0.40;;;;;;;22.97;74.97;98638.19;5110099;28;20578;-66
2023/07/27 05:13:33;;;;;;;0.50;0.50;;;;;;;23.02;73.74;98649.84;5107658;28;20205;-66
2023/07/27 05:16:01;;;;;;;0.63;0.63;;;;;;;22.99;73.50;98662.38;5109258;28;20195;-65
2023/07/27 05:18:28;;;;;;;0.70;0.70;;;;;;;23.02;73.10;98665.53;5111501;28;20226;-67
2023/07/27 05:20:55;;;;;;;0.57;0.57;;;;;;;23.12;73.19;98669.91;5111628;28;20202;-66
2023/07/27 05:23:22;;;;;;;1.13;1.13;;;;;;;23.20;73.71;98670.03;5110783;28;20207;-66
2023/07/27 05:25:49;;;;;;;0.70;0.60;;;;;;;23.28;74.22;98678.78;5110839;28;20199;-67
2023/07/27 05:28:17;;;;;;;0.50;0.50;;;;;;;23.30;72.33;98668.16;5110572;28;20238;-66
2023/07/27 05:30:44;;;;;;;0.63;0.63;;;;;;;23.33;72.35;98675.72;5111447;28;20198;-70
2023/07/27 05:33:11;;;;;;;0.83;0.50;;;;;;;23.38;71.23;98683.97;5111392;28;20662;-70
2023/07/27 05:35:37;;;;;;;0.40;0.40;;;;;;;23.44;71.28;98675.59;5111175;28;20751;-68
2023/07/27 05:38:04;;;;;;;0.50;0.50;;;;;;;23.51;72.25;98702.81;5110767;28;20206;-69
2023/07/27 05:40:31;;;;;;;0.70;0.70;;;;;;;23.34;70.19;98656.47;5110007;28;20202;-69
2023/07/27 05:42:58;;;;;;;0.80;0.80;;;;;;;23.61;70.87;98690.53;5110790;28;21086;-67
2023/07/27 05:45:26;;;;;;;0.57;0.57;;;;;;;23.82;71.34;98693.69;5110847;28;20671;-66
2023/07/27 05:47:53;;;;;;;0.40;0.40;;;;;;;24.03;68.95;98681.19;5110880;28;20251;-65
2023/07/27 05:50:20;;;;;;;0.70;0.70;;;;;;;24.09;67.21;98699.88;5110265;28;20220;-69
2023/07/27 05:52:47;;;;;;;0.88;0.88;;;;;;;24.09;68.49;98694.63;5109303;28;20442;-61
2023/07/27 05:55:14;;;;;;;0.63;0.63;;;;;;;24.15;66.76;98701.94;5110221;28;20206;-61
2023/07/27 05:57:41;;;;;;;0.70;0.70;;;;;;;23.82;67.91;98693.69;5111628;28;20194;-62
2023/07/27 06:00:10;;;;;;;0.50;0.50;;;;;;;23.73;69.02;98693.75;5111522;28;20198;-62
2023/07/27 06:02:38;;;;;;;0.50;0.50;;;;;;;23.44;68.90;98680.81;5111154;28;20211;-61
2023/07/27 06:05:05;;;;;;;0.83;0.83;;;;;;;23.49;69.05;98697.72;5111618;28;20583;-61
2023/07/27 06:07:32;;;;;;;1.07;1.07;;;;;;;23.45;69.10;98706.00;5111205;28;20191;-61
2023/07/27 06:09:59;;;;;;;0.43;0.43;;;;;;;23.55;68.58;98701.56;5111594;28;20698;-61
2023/07/27 06:12:25;;;;;;;0.60;0.60;;;;;;;23.58;68.37;98722.22;5111379;28;20190;-61
2023/07/27 06:14:52;;;;;;;0.53;0.53;;;;;;;23.81;68.22;98722.66;5111175;28;20194;-61
2023/07/27 06:17:20;;;;;;;0.77;0.63;;;;;;;23.94;66.98;98739.63;5111295;28;20206;-61
2023/07/27 06:19:48;;;;;;;0.60;0.60;;;;;;;24.00;66.23;98719.91;5110847;28;20195;-62
2023/07/27 06:22:15;;;;;;;0.77;0.77;;;;;;;23.98;65.79;98712.19;5111407;28;20206;-62
2023/07/27 06:24:41;;;;;;;0.60;0.60;;;;;;;23.93;66.84;98701.34;5111230;28;20206;-61
2023/07/27 06:27:08;;;;;;;0.73;0.73;;;;;;;23.82;66.73;98698.94;5111260;28;20624;-61
2023/07/27 06:29:35;;;;;;;0.93;0.40;;;;;;;23.76;65.47;98699.53;5110880;28;20228;-61
2023/07/27 06:32:01;;;;;;;0.57;0.57;;;;;;;23.78;66.08;98713.28;5110953;28;20187;-61
2023/07/27 06:34:29;;;;;;;0.93;0.93;;;;;;;23.66;65.16;98717.06;5111071;28;20202;-62
2023/07/27 06:36:57;;;;;;;0.50;0.50;;;;;;;23.56;64.59;98716.28;5110958;28;20293;-62
2023/07/27 06:39:23;;;;;;;0.60;0.60;;;;;;;23.53;65.88;98721.81;5110642;28;20225;-62
2023/07/27 06:41:51;;;;;;;0.40;0.40;;;;;;;23.36;64.95;98722.53;5110717;28;20201;-61
2023/07/27 06:44:18;;;;;;;0.60;0.60;;;;;;;23.32;63.55;98729.84;5111430;28;20650;-62
2023/07/27 06:46:45;;;;;;;0.70;0.70;;;;;;;23.28;64.53;98722.41;5110831;28;20202;-62
2023/07/27 06:49:12;;;;;;;0.53;0.53;;;;;;;23.13;63.66;98721.22;5111002;28;20194;-61
2023/07/27 06:51:39;;;;;;;0.50;0.50;;;;;;;22.96;64.72;98723.59;5111174;28;20729;-62
2023/07/27 06:54:07;;;;;;;0.70;0.70;;;;;;;23.02;64.24;98736.13;5110863;28;20206;-61
2023/07/27 06:56:34;;;;;;;0.60;0.60;;;;;;;23.24;64.61;98736.75;5110873;28;20199;-62
2023/07/27 08:04:49;;;;;;;0.50;0.50;;;;;;;24.58;54.93;98724.78;5156408;27;20559;-64
2023/07/27 08:07:16;;;;;;;1.70;0.50;;;;;;;24.59;53.93;98724.59;5155478;27;20201;-65
2023/07/27 08:09:43;;;;;;;0.33;0.33;;;;;;;24.59;54.28;98731.66;5154229;27;20571;-67
2023/07/27 08:12:10;;;;;;;0.93;0.93;;;;;;;24.33;52.75;98736.84;5149006;27;20639;-66
2023/07/27 08:14:36;;;;;;;0.60;0.60;;;;;;;24.11;53.24;98745.06;5149088;27;20198;-66
2023/07/27 08:17:03;;;;;;;1.00;1.00;;;;;;;24.23;53.71;98739.53;5154967;27;20292;-67
2023/07/27 08:19:30;;;;;;;0.50;0.50;;;;;;;24.54;53.04;98742.59;5154037;27;20202;-69
2023/07/27 08:21:59;;;;;;;0.67;0.67;;;;;;;24.68;52.68;98744.69;5157264;27;20284;-66
2023/07/27 08:24:25;;;;;;;1.70;0.77;;;;;;;24.22;51.73;98752.75;5157849;27;20579;-66
2023/07/27 08:26:52;;;;;;;0.70;0.70;;;;;;;24.04;52.81;98766.59;5156658;27;20229;-67
2023/07/27 08:29:20;;;;;;;0.50;0.50;;;;;;;23.83;53.23;98773.88;5152658;27;20212;-67
2023/07/27 08:31:46;;;;;;;0.63;0.63;;;;;;;23.71;53.70;98777.66;5156089;27;20205;-67
2023/07/27 08:34:13;;;;;;;0.47;0.47;;;;;;;23.68;53.97;98775.34;5164846;27;20216;-66
2023/07/27 08:36:40;;;;;;;0.53;0.53;;;;;;;23.76;53.27;98780.66;5162818;27;20205;-65
2023/07/27 08:39:08;;;;;;;0.50;0.50;;;;;;;23.59;53.17;98755.25;5153057;27;20204;-65
2023/07/27 08:41:35;;;;;;;0.43;0.43;;;;;;;23.40;54.20;98755.31;5156326;27;20649;-66
2023/07/27 08:44:03;;;;;;;0.60;0.60;;;;;;;23.25;55.56;98761.94;5159407;27;20219;-66
2023/07/27 08:46:30;;;;;;;0.53;0.53;;;;;;;23.01;57.22;98771.06;5156060;27;20638;-66
2023/07/27 08:48:57;;;;;;;0.50;0.50;;;;;;;22.91;61.04;98772.84;5162616;27;20233;-65
2023/07/27 08:51:24;;;;;;;0.90;0.90;;;;;;;22.72;62.61;98770.25;5161524;27;21589;-65
2023/07/27 08:53:51;;;;;;;0.50;0.50;;;;;;;22.49;62.11;98780.09;5154209;27;20213;-66
2023/07/27 08:56:19;;;;;;;0.80;0.80;;;;;;;22.48;62.37;98788.09;5161283;27;20223;-65
2023/07/27 08:58:46;;;;;;;0.50;0.50;;;;;;;22.42;60.84;98783.41;5162887;27;20207;-66
2023/07/27 09:01:15;;;;;;;0.50;0.50;;;;;;;22.43;60.16;98779.81;5159149;27;20228;-65
2023/07/27 09:16:36;;;;;;;0.70;0.70;;;;;;;23.68;56.02;98779.75;5086781;28;20600;-62
2023/07/27 09:19:03;;;;;;;0.50;0.50;;;;;;;24.20;54.88;98781.69;5088214;28;20341;-63
2023/07/27 09:21:39;;;;;;;0.60;0.60;;;;;;;24.73;52.91;98773.88;5087297;28;20210;-62
2023/07/27 09:24:10;;;;;;;0.60;0.60;;;;;;;25.25;50.07;98773.97;5087736;28;20230;-62
2023/07/27 09:26:45;;;;;;;1.53;0.57;;;;;;;25.43;49.99;98751.13;5087257;28;20261;-62
2023/07/27 09:29:12;;;;;;;0.40;0.40;;;;;;;25.61;47.07;98793.94;5087401;28;20222;-63
2023/07/27 09:31:46;;;;;;;0.43;0.43;;;;;;;25.61;47.11;98814.09;5086765;28;20207;-62
2023/07/27 09:34:12;;;;;;;0.50;0.50;;;;;;;25.66;46.61;98814.44;5083757;28;20195;-61
2023/07/27 09:36:40;;;;;;;0.83;0.40;;;;;;;25.95;46.02;98815.75;5085216;28;20210;-62
2023/07/27 09:39:07;;;;;;;0.50;0.50;;;;;;;26.28;44.34;98810.66;5086796;28;20292;-62
2023/07/27 09:41:34;;;;;;;0.37;0.37;;;;;;;26.50;48.52;98810.03;5083567;28;20206;-62
2023/07/27 09:44:02;;;;;;;1.10;0.50;;;;;;;26.77;45.81;98801.88;5087185;28;20702;-62
2023/07/27 09:46:29;;;;;;;0.40;0.40;;;;;;;27.11;44.31;98799.94;5086642;28;20200;-63
2023/07/27 09:49:01;;;;;;;0.30;0.30;;;;;;;27.29;42.63;98796.31;5085811;28;20210;-62
2023/07/27 09:51:28;;;;;;;0.30;0.30;;;;;;;27.60;44.38;98792.00;5086459;28;20257;-62
2023/07/27 09:53:56;;;;;;;0.40;0.40;;;;;;;27.73;40.58;98781.75;5084041;28;20286;-65
2023/07/27 09:56:24;;;;;;;0.50;0.50;;;;;;;28.02;38.33;98789.88;5082797;28;20203;-63
2023/07/27 09:58:51;;;;;;;0.30;0.30;;;;;;;28.29;38.28;98787.78;5084493;28;20636;-63
2023/07/27 10:01:18;;;;;;;0.30;0.30;;;;;;;28.32;37.63;98779.53;5085392;28;20698;-60
2023/07/27 10:03:45;;;;;;;0.40;0.40;;;;;;;28.64;37.93;98779.31;5081760;28;20632;-61
2023/07/27 10:06:16;;;;;;;0.40;0.40;;;;;;;28.61;36.53;98769.13;5084944;28;20219;-60
2023/07/27 10:08:44;;;;;;;0.40;0.40;;;;;;;28.84;37.88;98777.06;5081169;28;20662;-60
2023/07/27 10:11:11;;;;;;;0.40;0.40;;;;;;;28.99;38.20;98768.19;5083322;28;20207;-60
2023/07/27 10:13:51;;;;;;;0.33;0.33;;;;;;;29.18;36.16;98772.97;5078492;28;20204;-60
2023/07/27 10:16:20;;;;;;;0.40;0.40;;;;;;;29.33;35.14;98766.94;5063791;28;20240;-60
2023/07/27 10:18:48;;;;;;;0.30;0.30;;;;;;;29.48;36.96;98765.09;5069939;28;20221;-60
2023/07/27 10:21:25;;;;;;;0.47;0.47;;;;;;;29.55;36.28;98768.66;5063436;28;20274;-60
2023/07/27 10:23:57;;;;;;;0.30;0.30;;;;;;;29.58;35.17;98757.72;5063543;28;20699;-59
2023/07/27 10:26:46;;;;;;;0.40;0.40;;;;;;;29.66;34.70;98755.81;5066866;28;20302;-60
2023/07/27 10:29:15;;;;;;;0.30;0.30;;;;;;;29.56;35.28;98755.28;5060056;28;20309;-60
2023/07/27 10:31:44;;;;;;;0.40;0.40;;;;;;;29.36;35.01;98711.94;5071343;28;20235;-60
2023/07/27 10:34:15;;;;;;;0.38;0.38;;;;;;;29.77;34.65;98759.81;5062386;28;20236;-60
2023/07/27 10:36:56;;;;;;;0.30;0.30;;;;;;;29.75;33.85;98748.63;5069962;28;20200;-60
2023/07/27 10:39:29;;;;;;;0.20;0.20;;;;;;;29.78;34.71;98736.88;5069299;28;20295;-61
2023/07/27 10:42:01;;;;;;;0.40;0.40;;;;;;;29.89;33.95;98739.88;5066569;28;20291;-60
2023/07/27 10:44:28;;;;;;;0.40;0.40;;;;;;;30.02;34.99;98761.19;5072698;28;20224;-60
2023/07/27 10:46:59;;;;;;;0.47;0.47;;;;;;;29.97;34.73;98755.63;5071485;28;20208;-60
2023/07/27 10:49:25;;;;;;;0.23;0.23;;;;;;;29.97;32.93;98739.78;5070662;28;20200;-60
2023/07/27 10:51:54;;;;;;;0.43;0.43;;;;;;;29.98;31.86;98746.72;5070281;28;20253;-60
2023/07/27 10:54:21;;;;;;;0.35;0.35;;;;;;;29.79;32.99;98741.94;5070156;28;20238;-60
2023/07/27 10:56:48;;;;;;;1.20;0.55;;;;;;;29.80;32.07;98748.88;5069003;28;20310;-60
2023/07/27 10:59:16;;;;;;;0.20;0.20;;;;;;;29.80;34.01;98740.94;5067534;28;20196;-60
2023/07/27 11:01:43;;;;;;;4.68;0.50;;;;;;;29.93;32.30;98745.59;5067814;28;20196;-60
2023/07/27 11:04:11;;;;;;;0.50;0.50;;;;;;;29.88;32.47;98732.97;5070588;28;20274;-61
2023/07/27 11:06:45;;;;;;;0.50;0.50;;;;;;;29.85;33.72;98743.91;5069533;28;20208;-60
2023/07/27 11:09:15;;;;;;;0.40;0.40;;;;;;;29.95;33.25;98738.34;5068803;28;20212;-60
2023/07/27 11:11:43;;;;;;;0.30;0.30;;;;;;;29.96;31.95;98742.59;5064245;28;20204;-60
2023/07/27 11:14:10;;;;;;;0.37;0.37;;;;;;;30.02;34.51;98744.50;5069596;28;20208;-61
2023/07/27 11:16:38;;;;;;;0.30;0.30;;;;;;;30.15;34.32;98734.06;5069546;28;20204;-60
2023/07/27 11:19:07;;;;;;;0.40;0.40;;;;;;;30.26;31.44;98756.56;5067812;28;20551;-60
2023/07/27 11:21:38;;;;;;;0.32;0.32;;;;;;;30.31;31.46;98739.13;5070937;28;20203;-60
2023/07/27 11:24:06;;;;;;;0.40;0.40;;;;;;;30.42;33.05;98735.19;5070738;28;20219;-61
2023/07/27 11:26:35;;;;;;;0.40;0.40;;;;;;;30.47;32.84;98733.63;5069105;28;20223;-59
2023/07/27 11:29:02;;;;;;;0.40;0.40;;;;;;;30.42;31.48;98745.78;5069913;28;20207;-59
2023/07/27 11:31:29;;;;;;;0.30;0.30;;;;;;;30.37;31.33;98748.16;5069744;28;20216;-60
2023/07/27 11:33:58;;;;;;;0.43;0.43;;;;;;;30.46;31.18;98749.69;5068476;28;20216;-60
2023/07/27 11:36:28;;;;;;;0.40;0.40;;;;;;;30.53;31.56;98748.78;5070756;28;20231;-61
2023/07/27 11:38:55;;;;;;;0.45;0.45;;;;;;;30.52;32.55;98752.41;5069695;28;20216;-59
2023/07/27 11:41:22;;;;;;;0.30;0.30;;;;;;;30.40;32.09;98747.81;5070190;28;20204;-61
2023/07/27 11:43:52;;;;;;;0.40;0.40;;;;;;;30.46;33.04;98741.75;5070359;28;20215;-60
2023/07/27 11:46:20;;;;;;;0.40;0.40;;;;;;;30.43;31.59;98764.13;5069491;28;20220;-60
2023/07/27 11:48:48;;;;;;;0.40;0.40;;;;;;;30.24;31.61;98745.38;5068810;28;20236;-61
2023/07/27 11:51:15;;;;;;;0.47;0.47;;;;;;;30.25;33.86;98747.81;5070533;28;20279;-59
2023/07/27 11:53:45;;;;;;;0.38;0.38;;;;;;;30.33;33.03;98749.53;5069788;28;20204;-60
2023/07/27 11:56:12;;;;;;;0.38;0.38;;;;;;;30.49;31.22;98762.53;5068213;28;20196;-60
2023/07/27 11:58:39;;;;;;;0.30;0.30;;;;;;;30.55;32.98;98757.31;5068762;28;20575;-62
2023/07/27 12:01:08;;;;;;;0.40;0.40;;;;;;;30.49;31.02;98758.09;5067846;28;20196;-61
2023/07/27 12:03:34;;;;;;;0.40;0.40;;;;;;;30.55;32.13;98759.16;5068390;28;20895;-61
2023/07/27 12:06:03;;;;;;;0.43;0.43;;;;;;;30.62;31.87;98760.84;5065818;28;20217;-61
2023/07/27 12:08:31;;;;;;;0.45;0.45;;;;;;;30.55;31.81;98761.78;5070915;28;20212;-62
2023/07/27 12:11:00;;;;;;;0.30;0.30;;;;;;;30.48;31.24;98751.16;5068199;28;20207;-60
2023/07/27 12:13:28;;;;;;;0.32;0.32;;;;;;;30.56;31.48;98752.84;5071038;28;20196;-62
2023/07/27 12:15:59;;;;;;;0.32;0.32;;;;;;;30.48;31.12;98760.91;5069786;28;20254;-61
2023/07/27 12:18:29;;;;;;;0.40;0.40;;;;;;;30.54;32.66;98745.09;5071112;28;20200;-61
2023/07/27 12:20:56;;;;;;;0.30;0.30;;;;;;;30.58;30.60;98756.94;5071414;28;20203;-62
2023/07/27 12:23:25;;;;;;;0.30;0.30;;;;;;;30.54;31.11;98744.28;5071423;28;20634;-62
2023/07/27 12:25:54;;;;;;;0.30;0.30;;;;;;;30.75;30.76;98754.88;5068597;28;20246;-62
2023/07/27 12:28:20;;;;;;;0.30;0.30;;;;;;;30.83;29.76;98754.72;5071247;28;20200;-61
2023/07/27 12:30:47;;;;;;;0.20;0.20;;;;;;;30.82;30.05;98737.22;5067496;28;21006;-63
2023/07/27 12:33:14;;;;;;;0.32;0.32;;;;;;;30.73;30.59;98754.22;5070306;28;20412;-61
2023/07/27 12:35:42;;;;;;;0.43;0.43;;;;;;;30.57;31.45;98755.28;5066745;28;20210;-62
2023/07/27 12:38:09;;;;;;;0.30;0.30;;;;;;;30.53;31.13;98756.69;5066599;28;20215;-63
2023/07/27 12:40:36;;;;;;;0.20;0.20;;;;;;;30.53;31.14;98758.53;5069651;28;20721;-61
2023/07/27 12:43:03;;;;;;;0.40;0.40;;;;;;;30.45;30.95;98755.97;5067825;28;20575;-61
2023/07/27 12:45:29;;;;;;;0.50;0.50;;;;;;;30.55;32.82;98764.44;5068437;28;20649;-61
2023/07/27 12:47:56;;;;;;;0.40;0.40;;;;;;;30.60;31.01;98744.34;5069544;28;20212;-59
2023/07/27 12:50:23;;;;;;;6.60;0.50;;;;;;;30.75;30.61;98761.97;5067666;28;20257;-61
2023/07/27 12:52:51;;;;;;;1.40;0.50;;;;;;;30.71;30.18;98772.94;5065600;28;20195;-61
2023/07/27 12:55:19;;;;;;;0.30;0.30;;;;;;;30.56;31.07;98768.72;5069091;28;20206;-62
2023/07/27 12:57:46;;;;;;;0.50;0.50;;;;;;;30.60;31.04;98759.38;5069601;28;20200;-61